sensor_id;sensor_type;location;lat;lon;timestamp;temperature;humidity
9810;DHT22;4944;52.514;13.192;2023-02-15T00:01:43;4.10;99.90
9810;DHT22;4944;52.514;13.192;2023-02-15T00:04:13;4.10;99.90
9810;DHT22;4944;52.514;13.192;2023-02-15T00:06:40;4.10;99.90
9810;DHT22;4944;52.514;13.192;2023-02-15T00:09:10;4.00;99.90
9810;DHT22;4944;52.514;13.192;2023-02-15T00:11:37;4.00;99.90
9810;DHT22;4944;52.514;13.192;2023-02-15T00:14:10;4.00;99.90
9810;DHT22;4944;52.514;13.192;2023-02-15T00:16:38;4.00;99.90
9810;DHT22;4944;52.514;13.192;2023-02-15T00:19:06;3.90;99.90
9810;DHT22;4944;52.514;13.192;2023-02-15T00:21:34;3.90;99.90
9810;DHT22;4944;52.514;13.192;2023-02-15T00:24:03;3.90;99.90
9810;DHT22;4944;52.514;13.192;2023-02-15T00:26:32;3.90;99.90
9810;DHT22;4944;52.514;13.192;2023-02-15T00:29:00;3.90;99.90
9810;DHT22;4944;52.514;13.192;2023-02-15T00:31:28;3.80;99.90
9810;DHT22;4944;52.514;13.192;2023-02-15T00:33:56;3.80;99.90
9810;DHT22;4944;52.514;13.192;2023-02-15T00:36:27;3.80;99.90
9810;DHT22;4944;52.514;13.192;2023-02-15T00:38:53;3.80;99.90
9810;DHT22;4944;52.514;13.192;2023-02-15T00:41:20;3.80;99.90
9810;DHT22;4944;52.514;13.192;2023-02-15T00:43:49;3.70;99.90
9810;DHT22;4944;52.514;13.192;2023-02-15T00:46:16;3.70;99.90
9810;DHT22;4944;52.514;13.192;2023-02-15T00:48:42;3.60;99.90
9810;DHT22;4944;52.514;13.192;2023-02-15T00:51:09;3.60;99.90
9810;DHT22;4944;52.514;13.192;2023-02-15T00:53:36;3.60;99.90
9810;DHT22;4944;52.514;13.192;2023-02-15T00:56:03;3.50;99.90
9810;DHT22;4944;52.514;13.192;2023-02-15T00:58:30;3.50;99.90
9810;DHT22;4944;52.514;13.192;2023-02-15T01:01:04;3.50;99.90
9810;DHT22;4944;52.514;13.192;2023-02-15T01:03:32;3.50;99.90
9810;DHT22;4944;52.514;13.192;2023-02-15T01:06:00;3.50;99.90
9810;DHT22;4944;52.514;13.192;2023-02-15T01:08:27;3.50;99.90
9810;DHT22;4944;52.514;13.192;2023-02-15T01:10:54;3.40;99.90
9810;DHT22;4944;52.514;13.192;2023-02-15T01:13:21;3.40;99.90
9810;DHT22;4944;52.514;13.192;2023-02-15T01:15:52;3.40;99.90
9810;DHT22;4944;52.514;13.192;2023-02-15T01:18:21;3.40;99.90
9810;DHT22;4944;52.514;13.192;2023-02-15T01:20:49;3.40;99.90
9810;DHT22;4944;52.514;13.192;2023-02-15T01:23:16;3.40;99.90
9810;DHT22;4944;52.514;13.192;2023-02-15T01:25:43;3.40;99.90
9810;DHT22;4944;52.514;13.192;2023-02-15T01:28:10;3.30;99.90
9810;DHT22;4944;52.514;13.192;2023-02-15T01:30:37;3.30;99.90
9810;DHT22;4944;52.514;13.192;2023-02-15T01:33:04;3.30;99.90
9810;DHT22;4944;52.514;13.192;2023-02-15T01:35:33;3.30;99.90
9810;DHT22;4944;52.514;13.192;2023-02-15T01:38:03;3.20;99.90
9810;DHT22;4944;52.514;13.192;2023-02-15T01:40:29;3.20;99.90
9810;DHT22;4944;52.514;13.192;2023-02-15T01:42:56;3.20;99.90
9810;DHT22;4944;52.514;13.192;2023-02-15T01:45:26;3.20;99.90
9810;DHT22;4944;52.514;13.192;2023-02-15T01:47:57;3.20;99.90
9810;DHT22;4944;52.514;13.192;2023-02-15T01:50:28;3.20;99.90
9810;DHT22;4944;52.514;13.192;2023-02-15T01:53:01;3.20;99.90
9810;DHT22;4944;52.514;13.192;2023-02-15T01:55:31;3.20;99.90
9810;DHT22;4944;52.514;13.192;2023-02-15T01:58:00;3.20;99.90
9810;DHT22;4944;52.514;13.192;2023-02-15T02:00:28;3.10;99.90
9810;DHT22;4944;52.514;13.192;2023-02-15T02:02:55;3.20;99.90
9810;DHT22;4944;52.514;13.192;2023-02-15T02:05:24;3.10;99.90
9810;DHT22;4944;52.514;13.192;2023-02-15T02:07:53;3.10;99.90
9810;DHT22;4944;52.514;13.192;2023-02-15T02:10:39;3.00;99.90
9810;DHT22;4944;52.514;13.192;2023-02-15T02:13:10;3.00;99.90
9810;DHT22;4944;52.514;13.192;2023-02-15T02:22:57;3.00;99.90
9810;DHT22;4944;52.514;13.192;2023-02-15T02:25:55;2.90;99.90
9810;DHT22;4944;52.514;13.192;2023-02-15T02:31:35;2.90;99.90
9810;DHT22;4944;52.514;13.192;2023-02-15T02:34:11;2.90;99.90
9810;DHT22;4944;52.514;13.192;2023-02-15T02:36:46;2.90;99.90
9810;DHT22;4944;52.514;13.192;2023-02-15T02:39:26;2.90;99.90
9810;DHT22;4944;52.514;13.192;2023-02-15T02:42:01;2.80;99.90
9810;DHT22;4944;52.514;13.192;2023-02-15T02:44:34;2.80;99.90
9810;DHT22;4944;52.514;13.192;2023-02-15T02:47:08;2.70;99.90
9810;DHT22;4944;52.514;13.192;2023-02-15T02:49:39;2.70;99.90
9810;DHT22;4944;52.514;13.192;2023-02-15T02:54:49;2.70;99.90
9810;DHT22;4944;52.514;13.192;2023-02-15T02:57:17;2.70;99.90
9810;DHT22;4944;52.514;13.192;2023-02-15T02:59:46;2.70;99.90
9810;DHT22;4944;52.514;13.192;2023-02-15T03:02:18;2.70;99.90
9810;DHT22;4944;52.514;13.192;2023-02-15T03:04:52;2.70;99.90
9810;DHT22;4944;52.514;13.192;2023-02-15T03:07:25;2.70;99.90
9810;DHT22;4944;52.514;13.192;2023-02-15T03:09:55;2.70;99.90
9810;DHT22;4944;52.514;13.192;2023-02-15T03:12:25;2.70;99.90
9810;DHT22;4944;52.514;13.192;2023-02-15T03:14:59;2.70;99.90
9810;DHT22;4944;52.514;13.192;2023-02-15T03:17:31;2.70;99.90
9810;DHT22;4944;52.514;13.192;2023-02-15T03:20:03;2.70;99.90
9810;DHT22;4944;52.514;13.192;2023-02-15T03:22:33;2.70;99.90
9810;DHT22;4944;52.514;13.192;2023-02-15T03:25:05;2.70;99.90
9810;DHT22;4944;52.514;13.192;2023-02-15T03:27:37;2.80;99.90
9810;DHT22;4944;52.514;13.192;2023-02-15T03:30:06;2.80;99.90
9810;DHT22;4944;52.514;13.192;2023-02-15T03:32:34;2.70;99.90
9810;DHT22;4944;52.514;13.192;2023-02-15T03:35:05;2.70;99.90
9810;DHT22;4944;52.514;13.192;2023-02-15T03:37:35;2.70;99.90
9810;DHT22;4944;52.514;13.192;2023-02-15T03:40:09;2.70;99.90
9810;DHT22;4944;52.514;13.192;2023-02-15T03:46:19;2.60;99.90
9810;DHT22;4944;52.514;13.192;2023-02-15T03:48:50;2.70;99.90
9810;DHT22;4944;52.514;13.192;2023-02-15T03:51:22;2.70;99.90
9810;DHT22;4944;52.514;13.192;2023-02-15T03:54:04;2.70;99.90
9810;DHT22;4944;52.514;13.192;2023-02-15T03:56:34;2.70;99.90
9810;DHT22;4944;52.514;13.192;2023-02-15T03:59:02;2.70;99.90
9810;DHT22;4944;52.514;13.192;2023-02-15T04:01:54;2.70;99.90
9810;DHT22;4944;52.514;13.192;2023-02-15T04:04:35;2.70;99.90
9810;DHT22;4944;52.514;13.192;2023-02-15T04:07:05;2.60;99.90
9810;DHT22;4944;52.514;13.192;2023-02-15T04:09:32;2.60;99.90
9810;DHT22;4944;52.514;13.192;2023-02-15T04:12:16;2.60;99.90
9810;DHT22;4944;52.514;13.192;2023-02-15T04:14:43;2.70;99.90
9810;DHT22;4944;52.514;13.192;2023-02-15T04:17:28;2.80;99.90
9810;DHT22;4944;52.514;13.192;2023-02-15T04:19:54;2.90;99.90
9810;DHT22;4944;52.514;13.192;2023-02-15T04:22:40;2.90;99.90
9810;DHT22;4944;52.514;13.192;2023-02-15T04:25:25;2.90;99.90
9810;DHT22;4944;52.514;13.192;2023-02-15T04:27:53;2.90;99.90
9810;DHT22;4944;52.514;13.192;2023-02-15T04:30:22;3.00;99.90
9810;DHT22;4944;52.514;13.192;2023-02-15T04:32:49;3.00;99.90
9810;DHT22;4944;52.514;13.192;2023-02-15T04:35:17;3.00;99.90
9810;DHT22;4944;52.514;13.192;2023-02-15T04:37:45;3.00;99.90
9810;DHT22;4944;52.514;13.192;2023-02-15T04:40:13;3.00;99.90
9810;DHT22;4944;52.514;13.192;2023-02-15T04:42:40;3.00;99.90
9810;DHT22;4944;52.514;13.192;2023-02-15T04:45:08;3.10;99.90
9810;DHT22;4944;52.514;13.192;2023-02-15T04:47:34;3.10;99.90
9810;DHT22;4944;52.514;13.192;2023-02-15T04:50:01;3.00;99.90
9810;DHT22;4944;52.514;13.192;2023-02-15T04:52:28;3.00;99.90
9810;DHT22;4944;52.514;13.192;2023-02-15T04:54:56;3.00;99.90
9810;DHT22;4944;52.514;13.192;2023-02-15T04:57:23;3.00;99.90
9810;DHT22;4944;52.514;13.192;2023-02-15T04:59:50;2.90;99.90
9810;DHT22;4944;52.514;13.192;2023-02-15T05:02:17;2.90;99.90
9810;DHT22;4944;52.514;13.192;2023-02-15T05:04:44;2.80;99.90
9810;DHT22;4944;52.514;13.192;2023-02-15T05:07:11;2.80;99.90
9810;DHT22;4944;52.514;13.192;2023-02-15T05:09:38;2.80;99.90
9810;DHT22;4944;52.514;13.192;2023-02-15T05:12:06;2.80;99.90
9810;DHT22;4944;52.514;13.192;2023-02-15T05:14:33;2.80;99.90
9810;DHT22;4944;52.514;13.192;2023-02-15T05:17:00;2.80;99.90
9810;DHT22;4944;52.514;13.192;2023-02-15T05:19:28;2.80;99.90
9810;DHT22;4944;52.514;13.192;2023-02-15T05:21:55;2.80;99.90
9810;DHT22;4944;52.514;13.192;2023-02-15T05:24:22;2.80;99.90
9810;DHT22;4944;52.514;13.192;2023-02-15T05:27:12;2.80;99.90
9810;DHT22;4944;52.514;13.192;2023-02-15T05:29:56;2.70;99.90
9810;DHT22;4944;52.514;13.192;2023-02-15T05:32:23;2.70;99.90
9810;DHT22;4944;52.514;13.192;2023-02-15T05:34:50;2.70;99.90
9810;DHT22;4944;52.514;13.192;2023-02-15T05:37:17;2.70;99.90
9810;DHT22;4944;52.514;13.192;2023-02-15T05:39:44;2.70;99.90
9810;DHT22;4944;52.514;13.192;2023-02-15T05:42:12;2.70;99.90
9810;DHT22;4944;52.514;13.192;2023-02-15T05:44:39;2.70;99.90
9810;DHT22;4944;52.514;13.192;2023-02-15T05:47:05;2.70;99.90
9810;DHT22;4944;52.514;13.192;2023-02-15T05:49:33;2.70;99.90
9810;DHT22;4944;52.514;13.192;2023-02-15T05:52:00;2.70;99.90
9810;DHT22;4944;52.514;13.192;2023-02-15T05:54:27;2.70;99.90
9810;DHT22;4944;52.514;13.192;2023-02-15T05:56:54;2.70;99.90
9810;DHT22;4944;52.514;13.192;2023-02-15T05:59:23;2.60;99.90
9810;DHT22;4944;52.514;13.192;2023-02-15T06:01:50;2.70;99.90
9810;DHT22;4944;52.514;13.192;2023-02-15T06:04:17;2.70;99.90
9810;DHT22;4944;52.514;13.192;2023-02-15T06:06:44;2.60;99.90
9810;DHT22;4944;52.514;13.192;2023-02-15T06:09:11;2.60;99.90
9810;DHT22;4944;52.514;13.192;2023-02-15T06:11:38;2.60;99.90
9810;DHT22;4944;52.514;13.192;2023-02-15T06:14:05;2.60;99.90
9810;DHT22;4944;52.514;13.192;2023-02-15T06:16:33;2.60;99.90
9810;DHT22;4944;52.514;13.192;2023-02-15T06:19:00;2.50;99.90
9810;DHT22;4944;52.514;13.192;2023-02-15T06:21:27;2.50;99.90
9810;DHT22;4944;52.514;13.192;2023-02-15T06:23:54;2.50;99.90
9810;DHT22;4944;52.514;13.192;2023-02-15T06:26:21;2.60;99.90
9810;DHT22;4944;52.514;13.192;2023-02-15T06:28:48;2.50;99.90
9810;DHT22;4944;52.514;13.192;2023-02-15T06:31:15;2.50;99.90
9810;DHT22;4944;52.514;13.192;2023-02-15T06:33:43;2.50;99.90
9810;DHT22;4944;52.514;13.192;2023-02-15T06:36:10;2.60;99.90
9810;DHT22;4944;52.514;13.192;2023-02-15T06:38:38;2.50;99.90
9810;DHT22;4944;52.514;13.192;2023-02-15T06:41:05;2.50;99.90
9810;DHT22;4944;52.514;13.192;2023-02-15T06:43:31;2.40;99.90
9810;DHT22;4944;52.514;13.192;2023-02-15T06:45:59;2.40;99.90
9810;DHT22;4944;52.514;13.192;2023-02-15T06:48:26;2.30;99.90
9810;DHT22;4944;52.514;13.192;2023-02-15T06:50:55;2.30;99.90
9810;DHT22;4944;52.514;13.192;2023-02-15T06:53:22;2.30;99.90
9810;DHT22;4944;52.514;13.192;2023-02-15T06:55:48;2.30;99.90
9810;DHT22;4944;52.514;13.192;2023-02-15T06:58:15;2.30;99.90
9810;DHT22;4944;52.514;13.192;2023-02-15T07:00:42;2.30;99.90
9810;DHT22;4944;52.514;13.192;2023-02-15T07:03:09;2.30;99.90
9810;DHT22;4944;52.514;13.192;2023-02-15T07:05:36;2.40;99.90
9810;DHT22;4944;52.514;13.192;2023-02-15T07:08:04;2.40;99.90
9810;DHT22;4944;52.514;13.192;2023-02-15T07:10:31;2.40;99.90
9810;DHT22;4944;52.514;13.192;2023-02-15T07:12:58;2.40;99.90
9810;DHT22;4944;52.514;13.192;2023-02-15T07:15:24;2.40;99.90
9810;DHT22;4944;52.514;13.192;2023-02-15T07:17:51;2.40;99.90
9810;DHT22;4944;52.514;13.192;2023-02-15T07:20:19;2.40;99.90
9810;DHT22;4944;52.514;13.192;2023-02-15T07:22:47;2.40;99.90
9810;DHT22;4944;52.514;13.192;2023-02-15T07:25:16;2.40;99.90
9810;DHT22;4944;52.514;13.192;2023-02-15T07:27:43;2.30;99.90
9810;DHT22;4944;52.514;13.192;2023-02-15T07:30:12;2.30;99.90
9810;DHT22;4944;52.514;13.192;2023-02-15T07:32:39;2.30;99.90
9810;DHT22;4944;52.514;13.192;2023-02-15T07:35:26;2.30;99.90
9810;DHT22;4944;52.514;13.192;2023-02-15T07:37:54;2.40;99.90
9810;DHT22;4944;52.514;13.192;2023-02-15T07:40:22;2.40;99.90
9810;DHT22;4944;52.514;13.192;2023-02-15T07:42:50;2.40;99.90
9810;DHT22;4944;52.514;13.192;2023-02-15T07:45:20;2.40;99.90
9810;DHT22;4944;52.514;13.192;2023-02-15T07:47:47;2.40;99.90
9810;DHT22;4944;52.514;13.192;2023-02-15T07:50:14;2.40;99.90
9810;DHT22;4944;52.514;13.192;2023-02-15T07:52:41;2.40;99.90
9810;DHT22;4944;52.514;13.192;2023-02-15T07:55:07;2.50;99.90
9810;DHT22;4944;52.514;13.192;2023-02-15T07:57:42;2.50;99.90
9810;DHT22;4944;52.514;13.192;2023-02-15T08:00:10;2.50;99.90
9810;DHT22;4944;52.514;13.192;2023-02-15T08:02:38;2.50;99.90
9810;DHT22;4944;52.514;13.192;2023-02-15T08:05:05;2.50;99.90
9810;DHT22;4944;52.514;13.192;2023-02-15T08:07:32;2.50;99.90
9810;DHT22;4944;52.514;13.192;2023-02-15T08:09:59;2.50;99.90
9810;DHT22;4944;52.514;13.192;2023-02-15T08:12:26;2.50;99.90
9810;DHT22;4944;52.514;13.192;2023-02-15T08:14:55;2.50;99.90
9810;DHT22;4944;52.514;13.192;2023-02-15T08:17:22;2.50;99.90
9810;DHT22;4944;52.514;13.192;2023-02-15T08:19:49;2.50;99.90
9810;DHT22;4944;52.514;13.192;2023-02-15T08:22:16;2.50;99.90
9810;DHT22;4944;52.514;13.192;2023-02-15T08:24:43;2.50;99.90
9810;DHT22;4944;52.514;13.192;2023-02-15T08:27:11;2.50;99.90
9810;DHT22;4944;52.514;13.192;2023-02-15T08:29:38;2.50;99.90
9810;DHT22;4944;52.514;13.192;2023-02-15T08:32:10;2.60;99.90
9810;DHT22;4944;52.514;13.192;2023-02-15T08:34:40;2.60;99.90
9810;DHT22;4944;52.514;13.192;2023-02-15T08:37:08;2.60;99.90
9810;DHT22;4944;52.514;13.192;2023-02-15T08:39:34;2.60;99.90
9810;DHT22;4944;52.514;13.192;2023-02-15T08:42:02;2.60;99.90
9810;DHT22;4944;52.514;13.192;2023-02-15T08:44:29;2.70;99.90
9810;DHT22;4944;52.514;13.192;2023-02-15T08:46:56;2.70;99.90
9810;DHT22;4944;52.514;13.192;2023-02-15T08:49:29;2.70;99.90
9810;DHT22;4944;52.514;13.192;2023-02-15T08:51:56;2.70;99.90
9810;DHT22;4944;52.514;13.192;2023-02-15T08:54:23;2.80;99.90
9810;DHT22;4944;52.514;13.192;2023-02-15T08:56:50;2.80;99.90
9810;DHT22;4944;52.514;13.192;2023-02-15T08:59:23;2.80;99.90
9810;DHT22;4944;52.514;13.192;2023-02-15T09:02:01;2.80;99.90
9810;DHT22;4944;52.514;13.192;2023-02-15T09:04:29;2.90;99.90
9810;DHT22;4944;52.514;13.192;2023-02-15T09:06:56;2.90;99.90
9810;DHT22;4944;52.514;13.192;2023-02-15T09:09:23;2.90;99.90
9810;DHT22;4944;52.514;13.192;2023-02-15T09:11:51;2.90;99.90
9810;DHT22;4944;52.514;13.192;2023-02-15T09:14:19;2.90;99.90
9810;DHT22;4944;52.514;13.192;2023-02-15T09:16:47;3.00;99.90
9810;DHT22;4944;52.514;13.192;2023-02-15T09:19:17;3.00;99.90
9810;DHT22;4944;52.514;13.192;2023-02-15T09:21:46;3.00;99.90
9810;DHT22;4944;52.514;13.192;2023-02-15T09:24:15;3.00;99.90
9810;DHT22;4944;52.514;13.192;2023-02-15T09:26:43;3.10;99.90
9810;DHT22;4944;52.514;13.192;2023-02-15T09:29:12;3.10;99.90
9810;DHT22;4944;52.514;13.192;2023-02-15T09:31:41;3.10;99.90
9810;DHT22;4944;52.514;13.192;2023-02-15T09:34:10;3.10;99.90
9810;DHT22;4944;52.514;13.192;2023-02-15T09:36:38;3.10;99.90
9810;DHT22;4944;52.514;13.192;2023-02-15T09:39:10;3.20;99.90
9810;DHT22;4944;52.514;13.192;2023-02-15T09:41:57;3.00;99.90
9810;DHT22;4944;52.514;13.192;2023-02-15T09:44:38;2.90;99.90
9810;DHT22;4944;52.514;13.192;2023-02-15T09:47:28;3.00;99.90
9810;DHT22;4944;52.514;13.192;2023-02-15T09:50:02;3.00;99.90
9810;DHT22;4944;52.514;13.192;2023-02-15T09:52:45;3.10;99.90
9810;DHT22;4944;52.514;13.192;2023-02-15T09:55:29;3.10;99.90
9810;DHT22;4944;52.514;13.192;2023-02-15T09:58:06;3.10;99.90
9810;DHT22;4944;52.514;13.192;2023-02-15T10:00:40;3.20;99.90
9810;DHT22;4944;52.514;13.192;2023-02-15T10:03:17;3.20;99.90
9810;DHT22;4944;52.514;13.192;2023-02-15T10:05:54;3.30;99.90
9810;DHT22;4944;52.514;13.192;2023-02-15T10:11:27;3.30;99.90
9810;DHT22;4944;52.514;13.192;2023-02-15T10:14:27;3.40;99.90
9810;DHT22;4944;52.514;13.192;2023-02-15T10:17:09;3.40;99.90
9810;DHT22;4944;52.514;13.192;2023-02-15T10:19:46;3.50;99.90
9810;DHT22;4944;52.514;13.192;2023-02-15T10:22:24;3.50;99.90
9810;DHT22;4944;52.514;13.192;2023-02-15T10:25:02;3.50;99.90
9810;DHT22;4944;52.514;13.192;2023-02-15T10:27:44;3.50;99.90
9810;DHT22;4944;52.514;13.192;2023-02-15T10:30:13;3.50;99.90
9810;DHT22;4944;52.514;13.192;2023-02-15T10:32:48;3.60;99.90
9810;DHT22;4944;52.514;13.192;2023-02-15T10:35:22;3.60;99.90
9810;DHT22;4944;52.514;13.192;2023-02-15T10:40:51;3.70;99.90
9810;DHT22;4944;52.514;13.192;2023-02-15T10:43:41;3.70;99.90
9810;DHT22;4944;52.514;13.192;2023-02-15T10:46:22;3.80;99.90
9810;DHT22;4944;52.514;13.192;2023-02-15T10:49:03;3.90;99.90
9810;DHT22;4944;52.514;13.192;2023-02-15T10:51:40;3.90;99.90
9810;DHT22;4944;52.514;13.192;2023-02-15T10:54:19;3.90;99.90
9810;DHT22;4944;52.514;13.192;2023-02-15T10:56:54;3.90;99.90
9810;DHT22;4944;52.514;13.192;2023-02-15T10:59:39;4.00;99.90
9810;DHT22;4944;52.514;13.192;2023-02-15T11:02:16;4.10;99.90
9810;DHT22;4944;52.514;13.192;2023-02-15T11:04:55;4.20;99.90
9810;DHT22;4944;52.514;13.192;2023-02-15T11:07:26;4.30;99.90
9810;DHT22;4944;52.514;13.192;2023-02-15T11:09:59;4.30;99.90
9810;DHT22;4944;52.514;13.192;2023-02-15T11:12:29;4.30;99.90
9810;DHT22;4944;52.514;13.192;2023-02-15T11:15:02;4.40;99.90
9810;DHT22;4944;52.514;13.192;2023-02-15T11:17:35;4.50;99.90
9810;DHT22;4944;52.514;13.192;2023-02-15T11:20:14;4.60;99.90
9810;DHT22;4944;52.514;13.192;2023-02-15T11:22:43;4.80;99.90
9810;DHT22;4944;52.514;13.192;2023-02-15T11:25:17;5.00;99.90
9810;DHT22;4944;52.514;13.192;2023-02-15T11:27:48;5.10;99.90
9810;DHT22;4944;52.514;13.192;2023-02-15T11:30:22;5.30;99.90
9810;DHT22;4944;52.514;13.192;2023-02-15T11:32:51;5.50;99.90
9810;DHT22;4944;52.514;13.192;2023-02-15T11:35:24;5.70;99.90
9810;DHT22;4944;52.514;13.192;2023-02-15T11:37:57;5.80;99.90
9810;DHT22;4944;52.514;13.192;2023-02-15T11:40:27;6.00;99.90
9810;DHT22;4944;52.514;13.192;2023-02-15T11:42:56;6.20;99.90
9810;DHT22;4944;52.514;13.192;2023-02-15T11:45:29;6.40;99.90
9810;DHT22;4944;52.514;13.192;2023-02-15T11:47:57;6.60;99.90
9810;DHT22;4944;52.514;13.192;2023-02-15T11:50:26;6.80;99.90
9810;DHT22;4944;52.514;13.192;2023-02-15T11:52:58;6.90;99.90
9810;DHT22;4944;52.514;13.192;2023-02-15T11:55:27;7.00;99.90
9810;DHT22;4944;52.514;13.192;2023-02-15T11:57:57;7.10;99.90
9810;DHT22;4944;52.514;13.192;2023-02-15T12:00:35;7.30;99.90
9810;DHT22;4944;52.514;13.192;2023-02-15T12:03:10;7.50;99.90
9810;DHT22;4944;52.514;13.192;2023-02-15T12:05:41;7.60;99.90
9810;DHT22;4944;52.514;13.192;2023-02-15T12:08:15;7.70;99.90
9810;DHT22;4944;52.514;13.192;2023-02-15T12:10:51;7.70;99.90
9810;DHT22;4944;52.514;13.192;2023-02-15T12:13:20;7.90;99.90
9810;DHT22;4944;52.514;13.192;2023-02-15T12:15:51;8.00;99.90
9810;DHT22;4944;52.514;13.192;2023-02-15T12:18:24;8.10;99.90
9810;DHT22;4944;52.514;13.192;2023-02-15T12:20:58;8.30;99.90
9810;DHT22;4944;52.514;13.192;2023-02-15T12:23:28;8.40;99.90
9810;DHT22;4944;52.514;13.192;2023-02-15T12:25:56;8.50;99.90
9810;DHT22;4944;52.514;13.192;2023-02-15T12:28:26;8.60;99.90
9810;DHT22;4944;52.514;13.192;2023-02-15T12:30:59;8.80;99.90
9810;DHT22;4944;52.514;13.192;2023-02-15T12:33:29;8.90;99.90
9810;DHT22;4944;52.514;13.192;2023-02-15T12:35:59;9.00;99.90
9810;DHT22;4944;52.514;13.192;2023-02-15T12:38:27;9.20;99.90
9810;DHT22;4944;52.514;13.192;2023-02-15T12:40:59;9.30;99.90
9810;DHT22;4944;52.514;13.192;2023-02-15T12:43:30;9.40;99.90
9810;DHT22;4944;52.514;13.192;2023-02-15T12:49:18;9.50;99.90
9810;DHT22;4944;52.514;13.192;2023-02-15T12:51:48;9.70;99.90
9810;DHT22;4944;52.514;13.192;2023-02-15T12:54:36;9.80;99.90
9810;DHT22;4944;52.514;13.192;2023-02-15T12:57:30;10.00;99.90
9810;DHT22;4944;52.514;13.192;2023-02-15T12:59:59;10.10;99.90
9810;DHT22;4944;52.514;13.192;2023-02-15T13:02:36;10.30;99.90
9810;DHT22;4944;52.514;13.192;2023-02-15T13:05:17;10.30;99.90
9810;DHT22;4944;52.514;13.192;2023-02-15T13:07:47;10.50;99.90
9810;DHT22;4944;52.514;13.192;2023-02-15T13:10:27;10.60;99.90
9810;DHT22;4944;52.514;13.192;2023-02-15T13:12:56;10.70;99.90
9810;DHT22;4944;52.514;13.192;2023-02-15T13:15:30;10.70;99.90
9810;DHT22;4944;52.514;13.192;2023-02-15T13:18:03;10.70;99.90
9810;DHT22;4944;52.514;13.192;2023-02-15T13:20:34;10.70;99.90
9810;DHT22;4944;52.514;13.192;2023-02-15T13:23:04;10.70;99.90
9810;DHT22;4944;52.514;13.192;2023-02-15T13:25:38;10.80;99.90
9810;DHT22;4944;52.514;13.192;2023-02-15T13:28:12;10.80;99.90
9810;DHT22;4944;52.514;13.192;2023-02-15T13:30:44;11.00;99.90
9810;DHT22;4944;52.514;13.192;2023-02-15T13:33:17;11.00;99.90
9810;DHT22;4944;52.514;13.192;2023-02-15T13:35:51;11.10;99.90
9810;DHT22;4944;52.514;13.192;2023-02-15T13:38:35;11.20;99.90
9810;DHT22;4944;52.514;13.192;2023-02-15T13:41:12;11.20;99.90
9810;DHT22;4944;52.514;13.192;2023-02-15T13:43:48;11.30;99.90
9810;DHT22;4944;52.514;13.192;2023-02-15T13:46:26;11.30;99.90
9810;DHT22;4944;52.514;13.192;2023-02-15T13:49:07;11.50;99.90
9810;DHT22;4944;52.514;13.192;2023-02-15T13:51:43;11.50;99.90
9810;DHT22;4944;52.514;13.192;2023-02-15T13:54:48;11.60;99.90
9810;DHT22;4944;52.514;13.192;2023-02-15T13:57:38;11.50;99.90
9810;DHT22;4944;52.514;13.192;2023-02-15T14:00:15;11.50;99.90
9810;DHT22;4944;52.514;13.192;2023-02-15T14:03:26;11.50;99.90
9810;DHT22;4944;52.514;13.192;2023-02-15T14:06:27;11.50;99.90
9810;DHT22;4944;52.514;13.192;2023-02-15T14:09:08;11.50;99.90
9810;DHT22;4944;52.514;13.192;2023-02-15T14:11:46;11.40;99.90
9810;DHT22;4944;52.514;13.192;2023-02-15T14:14:41;11.50;99.90
9810;DHT22;4944;52.514;13.192;2023-02-15T14:17:18;11.60;99.90
9810;DHT22;4944;52.514;13.192;2023-02-15T14:19:49;11.70;99.90
9810;DHT22;4944;52.514;13.192;2023-02-15T14:22:25;11.80;99.90
9810;DHT22;4944;52.514;13.192;2023-02-15T14:25:12;11.90;99.90
9810;DHT22;4944;52.514;13.192;2023-02-15T14:27:48;11.80;99.90
9810;DHT22;4944;52.514;13.192;2023-02-15T14:30:21;11.80;99.90
9810;DHT22;4944;52.514;13.192;2023-02-15T14:32:52;11.80;99.90
9810;DHT22;4944;52.514;13.192;2023-02-15T14:35:22;11.80;99.90
9810;DHT22;4944;52.514;13.192;2023-02-15T14:37:55;11.80;99.90
9810;DHT22;4944;52.514;13.192;2023-02-15T14:40:33;11.70;99.90
9810;DHT22;4944;52.514;13.192;2023-02-15T14:43:27;11.70;99.90
9810;DHT22;4944;52.514;13.192;2023-02-15T14:46:03;11.70;99.90
9810;DHT22;4944;52.514;13.192;2023-02-15T14:48:38;11.60;99.90
9810;DHT22;4944;52.514;13.192;2023-02-15T14:51:06;11.60;99.90
9810;DHT22;4944;52.514;13.192;2023-02-15T14:53:35;11.60;99.90
9810;DHT22;4944;52.514;13.192;2023-02-15T14:56:26;11.50;99.90
9810;DHT22;4944;52.514;13.192;2023-02-15T14:59:11;11.50;99.90
9810;DHT22;4944;52.514;13.192;2023-02-15T15:01:40;11.50;99.90
9810;DHT22;4944;52.514;13.192;2023-02-15T15:04:10;11.60;99.90
9810;DHT22;4944;52.514;13.192;2023-02-15T15:06:41;11.60;99.90
9810;DHT22;4944;52.514;13.192;2023-02-15T15:09:18;11.60;99.90
9810;DHT22;4944;52.514;13.192;2023-02-15T15:11:49;11.60;99.90
9810;DHT22;4944;52.514;13.192;2023-02-15T15:14:38;11.60;99.90
9810;DHT22;4944;52.514;13.192;2023-02-15T15:17:06;11.60;99.90
9810;DHT22;4944;52.514;13.192;2023-02-15T15:20:10;11.70;99.90
9810;DHT22;4944;52.514;13.192;2023-02-15T15:22:40;11.80;99.90
9810;DHT22;4944;52.514;13.192;2023-02-15T15:25:42;11.90;99.90
9810;DHT22;4944;52.514;13.192;2023-02-15T15:31:19;12.10;99.90
9810;DHT22;4944;52.514;13.192;2023-02-15T15:34:18;12.00;99.90
9810;DHT22;4944;52.514;13.192;2023-02-15T15:37:25;11.90;99.90
9810;DHT22;4944;52.514;13.192;2023-02-15T15:40:42;11.80;99.90
9810;DHT22;4944;52.514;13.192;2023-02-15T15:43:40;11.60;99.90
9810;DHT22;4944;52.514;13.192;2023-02-15T15:49:20;11.10;99.90
9810;DHT22;4944;52.514;13.192;2023-02-15T15:51:49;10.80;99.90
9810;DHT22;4944;52.514;13.192;2023-02-15T15:54:17;10.70;99.90
9810;DHT22;4944;52.514;13.192;2023-02-15T15:56:48;10.60;99.90
9810;DHT22;4944;52.514;13.192;2023-02-15T15:59:21;10.40;99.90
9810;DHT22;4944;52.514;13.192;2023-02-15T16:01:49;10.30;99.90
9810;DHT22;4944;52.514;13.192;2023-02-15T16:04:23;10.20;99.90
9810;DHT22;4944;52.514;13.192;2023-02-15T16:06:50;10.10;99.90
9810;DHT22;4944;52.514;13.192;2023-02-15T16:09:20;9.90;99.90
9810;DHT22;4944;52.514;13.192;2023-02-15T16:11:48;9.90;99.90
9810;DHT22;4944;52.514;13.192;2023-02-15T16:14:26;9.80;99.90
9810;DHT22;4944;52.514;13.192;2023-02-15T16:16:57;9.70;99.90
9810;DHT22;4944;52.514;13.192;2023-02-15T16:19:28;9.70;99.90
9810;DHT22;4944;52.514;13.192;2023-02-15T16:21:58;9.60;99.90
9810;DHT22;4944;52.514;13.192;2023-02-15T16:30:28;9.40;99.90
9810;DHT22;4944;52.514;13.192;2023-02-15T16:33:05;9.30;99.90
9810;DHT22;4944;52.514;13.192;2023-02-15T16:35:32;9.20;99.90
9810;DHT22;4944;52.514;13.192;2023-02-15T16:38:00;9.20;99.90
9810;DHT22;4944;52.514;13.192;2023-02-15T16:43:15;9.10;99.90
9810;DHT22;4944;52.514;13.192;2023-02-15T16:45:44;9.00;99.90
9810;DHT22;4944;52.514;13.192;2023-02-15T16:48:20;8.90;99.90
9810;DHT22;4944;52.514;13.192;2023-02-15T16:50:50;8.90;99.90
9810;DHT22;4944;52.514;13.192;2023-02-15T16:53:20;8.80;99.90
9810;DHT22;4944;52.514;13.192;2023-02-15T16:55:51;8.70;99.90
9810;DHT22;4944;52.514;13.192;2023-02-15T16:58:26;8.70;99.90
9810;DHT22;4944;52.514;13.192;2023-02-15T17:00:58;8.60;99.90
9810;DHT22;4944;52.514;13.192;2023-02-15T17:03:26;8.60;99.90
9810;DHT22;4944;52.514;13.192;2023-02-15T17:05:55;8.50;99.90
9810;DHT22;4944;52.514;13.192;2023-02-15T17:08:28;8.40;99.90
9810;DHT22;4944;52.514;13.192;2023-02-15T17:11:11;8.30;99.90
9810;DHT22;4944;52.514;13.192;2023-02-15T17:13:39;8.20;99.90